Meteo Giornale » Osservazioni meteo Marocco » Fes-Sais
ore: 15:00 - Osservazioni Meteo Fes-Sais
Lat. 33° 56' N Lon. 4° 59' W Alt. 579 metri s.l.m.
33 °C
Temporale
Temp. 24 Ore
20 °C
35 °C
Ovest/Nord-Ovest
13 Km/h
Dew point 14 °C
Umidità 31 %
Visibilità 10 Km
Il sole sorge alle ore 06:53
Il sole tramonta alle ore 19:46
| Data e Ora | Cielo e Fenomeni | T °C | DP °C | Um. % | Pres. hPa | Vis. km | Vento km/h | |
|---|---|---|---|---|---|---|---|---|
| Oggi h: 15:00 | Temporale | 33 | 14 | 31 | 1019 | 10 | O/NO 13 | |
| Oggi h: 14:30 | Temporale | 33 | 15 | 33 | 1019 | 10 | O/NO 7.4 | |
| Oggi h: 14:00 | Temporale | 30 | 15 | 40 | 1018 | 10 | O/NO 14.8 | |
| Oggi h: 13:30 | Temporale | 31 | 14 | 35 | 1019 | 10 | O/NO 16.7 | |
| Oggi h: 13:00 | Temporale | 31 | 14 | 35 | 1018 | 10 | O/NO 16.7 | |
| Oggi h: 12:30 | Nuvoloso | 32 | 14 | 33 | 1018 | 10 | O/NO 16.7 | |
| Oggi h: 12:00 | Nuvoloso | 31 | 15 | 37 | 1019 | 10 | O/NO 13 | |
| Oggi h: 11:30 | Nuvoloso | 30 | 15 | 40 | 1019 | 10 | O/NO 11.1 | |
| Oggi h: 11:00 | Nuvoloso | 28 | 16 | 48 | 1019 | 10 | NO 9.3 | |
| Oggi h: 10:30 | Nuvoloso | 27 | 16 | 50 | 1019 | 10 | O/NO 11.1 | |
| Oggi h: 10:00 | Nuvoloso | 26 | 16 | 54 | 1018 | 10 | O 9.3 | |
| Oggi h: 09:30 | Nuvoloso | 25 | 16 | 57 | 1018 | 10 | O/NO 9.3 | |
| Oggi h: 09:00 | Nuvoloso | 24 | 16 | 60 | 1018 | 10 | O/NO 7.4 | |
| Oggi h: 08:30 | Nuvoloso | 23 | 15 | 60 | 1018 | 10 | N 5.5 | |
| Oggi h: 08:00 | Nuvoloso | 22 | 15 | 64 | 1018 | 10 | N 5.5 | |
| Oggi h: 07:30 | Molto Nuvoloso | 20 | 14 | 68 | 1018 | 10 | S/SO 7.4 | |
| Oggi h: 07:00 | Molto Nuvoloso | 21 | 14 | 64 | 1017 | 10 | N 5.5 | |
| Oggi h: 06:30 | Molto Nuvoloso | 22 | 15 | 64 | 1017 | 10 | N 3.7 | |
| Oggi h: 06:00 | Molto Nuvoloso | 23 | 15 | 60 | 1017 | 10 | O/SO 7.4 | |
| Oggi h: 05:30 | Molto Nuvoloso | 23 | 15 | 60 | 1017 | 10 | N 5.5 | |
| Oggi h: 05:00 | Molto Nuvoloso | 23 | 15 | 60 | 1017 | 10 | O 11.1 | |
| Oggi h: 04:30 | Molto Nuvoloso | 24 | 16 | 60 | 1017 | 10 | NO 11.1 | |
| Oggi h: 04:00 | Molto Nuvoloso | 24 | 16 | 60 | 1018 | 10 | O 16.7 | |
| Oggi h: 03:30 | Molto Nuvoloso | 25 | 15 | 53 | 1018 | 10 | O 20.3 | |
| Oggi h: 03:00 | Molto Nuvoloso | 26 | 14 | 47 | 1018 | 10 | O 16.7 | |
| Oggi h: 02:30 | Molto Nuvoloso | 30 | 11 | 30 | 1018 | 10 | N 9.3 | |
| Oggi h: 02:00 | Molto Nuvoloso | 35 | 5 | 15 | 1017 | 10 | S 25.9 | |
| Oggi h: 01:30 | Molto Nuvoloso | 33 | 5 | 17 | 1018 | 10 | N 5.5 | |
| Oggi h: 01:00 | Molto Nuvoloso | 33 | 5 | 17 | 1018 | 10 | S 16.7 | |
| Oggi h: 00:30 | Molto Nuvoloso | 34 | 5 | 16 | 1019 | 10 | S 24 | |
| Oggi h: 00:00 | Molto Nuvoloso | 32 | 7 | 21 | 1020 | 10 | S/SO 38.8 | |
| Ieri h: 23:30 | Molto Nuvoloso | 31 | 10 | 27 | 1020 | 10 | S/SO 37 | |
| Ieri h: 23:00 | Molto Nuvoloso | 28 | 15 | 45 | 1020 | 10 | N/NE 14.8 | |
| Ieri h: 22:30 | Molto Nuvoloso | 28 | 14 | 42 | 1019 | 10 | E 7.4 | |
| Ieri h: 22:00 | Molto Nuvoloso | 28 | 15 | 45 | 1019 | 10 | SO 9.3 | |
| Ieri h: 21:30 | Molto Nuvoloso | 28 | 14 | 42 | 1020 | 10 | S 7.4 | |
| Ieri h: 21:00 | Molto Nuvoloso | 29 | 15 | 42 | 1020 | 10 | S 7.4 | |
| Ieri h: 20:30 | Molto Nuvoloso | 29 | 15 | 42 | 1020 | 10 | N/NO 7.4 | |
| Ieri h: 20:00 | Molto Nuvoloso | 29 | 14 | 39 | 1018 | 10 | N 5.5 | |
| Ieri h: 19:30 | Molto Nuvoloso | 30 | 14 | 37 | 1019 | 10 | O/SO 7.4 | |
| Ieri h: 19:00 | Molto Nuvoloso | 31 | 15 | 37 | 1018 | 10 | N/NO 13 | |
| Ieri h: 18:30 | Molto Nuvoloso | 31 | 14 | 35 | 1018 | 10 | NO 13 | |
| Ieri h: 18:00 | Molto Nuvoloso | 32 | 14 | 33 | 1018 | 10 | O/NO 7.4 | |
| Ieri h: 17:30 | Temporale | 32 | 14 | 33 | 1018 | 10 | O/NO 11.1 | |
| Ieri h: 17:00 | Molto Nuvoloso | 33 | 15 | 33 | 1018 | 10 | NO 11.1 | |
| Ieri h: 16:30 | Molto Nuvoloso | 32 | 15 | 35 | 1018 | 10 | NO 14.8 | |
| Ieri h: 16:00 | Molto Nuvoloso | 31 | 15 | 37 | 1018 | 10 | NO 14.8 | |



